TimeEST,TemperatureF,Dew PointF,Humidity,Sea Level PressureIn,VisibilityMPH,Wind Direction,Wind SpeedMPH,Gust SpeedMPH,PrecipitationIn,Events,Conditions,WindDirDegrees,DateUTC
12:54 AM,46.0,33.1,61,30.46,10.0,NE,6.9,-,N/A,,Overcast,50,2012-11-19 05:54:00
1:54 AM,45.0,34.0,65,30.45,10.0,NNE,9.2,-,N/A,,Overcast,20,2012-11-19 06:54:00
2:54 AM,45.0,35.1,68,30.43,10.0,North,8.1,-,N/A,,Overcast,10,2012-11-19 07:54:00
3:54 AM,45.0,35.1,68,30.43,10.0,NNE,8.1,-,N/A,,Overcast,20,2012-11-19 08:54:00
4:54 AM,45.0,35.1,68,30.43,10.0,NE,5.8,-,N/A,,Overcast,40,2012-11-19 09:54:00
5:54 AM,45.0,35.1,68,30.43,10.0,NNE,8.1,-,N/A,,Overcast,20,2012-11-19 10:54:00
6:54 AM,45.0,35.1,68,30.43,10.0,North,6.9,-,N/A,,Overcast,10,2012-11-19 11:54:00
7:54 AM,45.0,35.1,68,30.42,10.0,North,8.1,-,N/A,,Overcast,10,2012-11-19 12:54:00
8:54 AM,46.0,36.0,68,30.42,10.0,NNE,8.1,-,N/A,,Overcast,20,2012-11-19 13:54:00
9:54 AM,48.0,36.0,63,30.41,10.0,North,10.4,-,N/A,,Overcast,10,2012-11-19 14:54:00
10:54 AM,50.0,37.0,61,30.40,10.0,NE,5.8,-,N/A,,Overcast,40,2012-11-19 15:54:00
11:54 AM,50.0,37.9,63,30.38,10.0,NNE,4.6,-,N/A,,Overcast,20,2012-11-19 16:54:00
12:54 PM,51.1,37.9,61,30.34,10.0,East,5.8,-,N/A,,Overcast,80,2012-11-19 17:54:00
1:20 PM,51.8,37.4,58,30.32,10.0,ESE,3.5,-,N/A,,Scattered Clouds,110,2012-11-19 18:20:00
1:54 PM,53.1,37.9,57,30.31,10.0,East,5.8,-,N/A,,Scattered Clouds,90,2012-11-19 18:54:00
2:54 PM,54.0,37.9,55,30.30,10.0,ENE,3.5,-,N/A,,Partly Cloudy,70,2012-11-19 19:54:00
3:54 PM,54.0,37.0,53,30.30,10.0,NNE,3.5,-,N/A,,Clear,30,2012-11-19 20:54:00
4:54 PM,52.0,37.0,57,30.29,10.0,NNE,4.6,-,N/A,,Clear,30,2012-11-19 21:54:00
5:54 PM,48.9,37.0,64,30.29,10.0,NNE,4.6,-,N/A,,Clear,30,2012-11-19 22:54:00
6:54 PM,46.0,36.0,68,30.28,10.0,ENE,3.5,-,N/A,,Clear,60,2012-11-19 23:54:00
7:54 PM,43.0,36.0,76,30.28,10.0,Calm,Calm,-,N/A,,Clear,0,2012-11-20 00:54:00
8:54 PM,41.0,35.1,79,30.28,10.0,Calm,Calm,-,N/A,,Clear,0,2012-11-20 01:54:00
9:54 PM,39.0,34.0,82,30.27,10.0,Calm,Calm,-,N/A,,Clear,0,2012-11-20 02:54:00
10:54 PM,39.0,34.0,82,30.25,10.0,Calm,Calm,-,N/A,,Clear,0,2012-11-20 03:54:00
11:54 PM,39.0,35.1,86,30.25,10.0,Calm,Calm,-,N/A,,Clear,0,2012-11-20 04:54:00